Time;durP1;ratioP1;P1;durP2;ratioP2;P2;SDS_P1;SDS_P2;PMS_P1;PMS_P2;Temp;Humidity;BMP_temperature;BMP_pressure;BME280_temperature;BME280_humidity;BME280_pressure;Samples;Min_cycle;Max_cycle;Signal;HPM_P1;HPM_P2
2021/04/15 00:01:17;;;;;;;2.15;1.67;;;;;;;2.89;76.53;97119.77;1684126;85;21158;-75
2021/04/15 00:03:45;;;;;;;1.90;1.40;;;;;;;2.88;76.07;97118.55;1683945;85;21600;-75
2021/04/15 00:06:21;;;;;;;2.08;1.47;;;;;;;2.87;75.90;97114.25;1683573;85;21153;-76
2021/04/15 00:08:50;;;;;;;1.87;1.67;;;;;;;2.87;76.34;97110.34;1684035;85;21125;-75
2021/04/15 00:11:22;;;;;;;2.35;1.70;;;;;;;2.89;76.27;97115.03;1684330;85;21138;-74
2021/04/15 00:13:53;;;;;;;2.02;1.65;;;;;;;2.88;76.19;97109.44;1685153;85;21151;-76
2021/04/15 00:16:21;;;;;;;1.95;1.70;;;;;;;2.85;75.89;97109.13;1684367;85;21631;-76
2021/04/15 00:18:48;;;;;;;2.00;1.75;;;;;;;2.80;75.90;97112.40;1683514;85;21165;-76
2021/04/15 00:21:17;;;;;;;2.02;1.70;;;;;;;2.75;76.17;97107.42;1684087;85;21169;-75
2021/04/15 00:23:46;;;;;;;2.47;1.82;;;;;;;2.76;76.33;97112.19;1684560;85;21175;-76
2021/04/15 00:26:16;;;;;;;2.42;2.10;;;;;;;2.75;76.38;97113.09;1685227;85;21328;-76
2021/04/15 00:28:43;;;;;;;2.60;1.77;;;;;;;2.75;76.23;97114.40;1685143;85;21123;-75
2021/04/15 00:31:11;;;;;;;2.37;1.70;;;;;;;2.74;76.27;97116.14;1684436;85;21157;-76
2021/04/15 00:33:38;;;;;;;2.22;1.90;;;;;;;2.76;76.49;97125.20;1683388;85;21149;-75
2021/04/15 00:36:07;;;;;;;2.30;1.50;;;;;;;2.77;76.30;97119.08;1677410;85;21165;-76
2021/04/15 00:38:35;;;;;;;1.92;1.72;;;;;;;2.71;76.06;97117.61;1678673;84;21613;-76
2021/04/15 00:41:04;;;;;;;2.12;1.42;;;;;;;2.65;76.47;97111.38;1692770;84;21133;-76
2021/04/15 00:43:37;;;;;;;1.90;1.70;;;;;;;2.66;76.24;97118.27;1694921;84;21149;-76
2021/04/15 00:46:40;;;;;;;1.85;1.50;;;;;;;2.69;76.37;97121.21;1677126;85;21578;-75
2021/04/15 00:49:11;;;;;;;2.55;1.55;;;;;;;2.71;76.45;97120.66;1677389;85;21186;-76
2021/04/15 00:51:44;;;;;;;2.55;1.75;;;;;;;2.75;76.63;97128.72;1677418;85;21670;-76
2021/04/15 00:54:47;;;;;;;2.27;1.80;;;;;;;2.75;76.48;97126.11;1677602;85;21185;-76
2021/04/15 00:57:28;;;;;;;2.40;1.62;;;;;;;2.80;76.66;97126.72;1686481;84;21658;-75
2021/04/15 00:59:56;;;;;;;1.90;1.60;;;;;;;2.85;76.69;97125.20;1697528;84;21599;-75
2021/04/15 01:02:25;;;;;;;3.02;1.87;;;;;;;2.91;76.92;97120.54;1697913;83;21184;-76
2021/04/15 01:05:06;;;;;;;2.10;1.80;;;;;;;2.97;76.84;97116.31;1697753;84;21157;-76
2021/04/15 01:07:33;;;;;;;2.15;1.70;;;;;;;3.02;76.42;97116.09;1697786;84;21164;-76
2021/04/15 01:10:01;;;;;;;1.92;1.40;;;;;;;3.04;76.32;97118.64;1694141;84;21607;-76
2021/04/15 01:13:15;;;;;;;1.70;1.37;;;;;;;3.11;76.57;97117.41;1685381;84;21145;-74
2021/04/15 01:16:09;;;;;;;2.92;1.70;;;;;;;3.17;76.66;97119.70;1697915;84;21193;-76
2021/04/15 01:18:48;;;;;;;1.90;1.52;;;;;;;3.21;76.21;97117.34;1698020;84;21168;-76
2021/04/15 01:21:54;;;;;;;2.12;1.55;;;;;;;3.27;76.22;97114.89;1698106;84;21133;-76
2021/04/15 01:24:50;;;;;;;2.05;1.47;;;;;;;3.28;75.66;97113.50;1677619;84;21589;-75
2021/04/15 01:27:56;;;;;;;1.60;1.40;;;;;;;3.32;75.60;97115.48;1677182;85;21211;-75
2021/04/15 01:30:32;;;;;;;1.92;1.62;;;;;;;3.33;75.73;97120.25;1642585;87;21733;-76
2021/04/15 01:33:26;;;;;;;1.70;1.42;;;;;;;3.26;75.33;97117.94;1627573;88;21635;-76
2021/04/15 01:36:02;;;;;;;2.95;2.12;;;;;;;3.25;75.36;97122.76;1648037;86;21159;-75
2021/04/15 01:38:41;;;;;;;2.83;1.90;;;;;;;3.23;74.96;97123.77;1661406;86;21170;-76
2021/04/15 01:41:25;;;;;;;3.45;1.90;;;;;;;3.26;74.65;97119.71;1768651;79;23365;-75
2021/04/15 01:44:04;;;;;;;3.70;2.20;;;;;;;3.17;75.43;97125.38;1754080;82;21116;-76
2021/04/15 01:46:35;;;;;;;2.90;2.15;;;;;;;3.12;74.91;97123.00;1747056;82;21159;-75
2021/04/15 01:49:07;;;;;;;3.47;2.58;;;;;;;3.07;74.77;97123.23;1754795;82;21161;-75
2021/04/15 01:51:43;;;;;;;2.90;2.45;;;;;;;3.01;74.80;97122.69;1754442;81;21625;-75
2021/04/15 01:54:22;;;;;;;3.08;2.37;;;;;;;2.96;74.76;97122.91;1754451;82;21101;-76
2021/04/15 01:57:01;;;;;;;3.05;2.12;;;;;;;2.89;74.95;97119.77;1733626;82;21136;-76
2021/04/15 02:00:00;;;;;;;5.30;2.20;;;;;;;2.86;75.63;97123.84;1754209;82;21546;-76
2021/04/15 02:02:38;;;;;;;2.35;2.00;;;;;;;2.84;75.12;97118.30;1637917;87;21187;-75
2021/04/15 02:05:24;;;;;;;2.52;2.00;;;;;;;2.86;75.43;97121.67;1835270;77;38890;-76
2021/04/15 02:08:00;;;;;;;2.35;2.10;;;;;;;2.91;76.40;97124.92;1828588;78;21577;-76
2021/04/15 02:10:28;;;;;;;2.67;2.00;;;;;;;2.91;75.63;97121.02;1828797;78;21294;-76
2021/04/15 02:12:59;;;;;;;2.90;1.85;;;;;;;2.93;75.43;97123.05;1828676;78;21251;-75
2021/04/15 02:15:31;;;;;;;2.83;2.17;;;;;;;2.94;75.02;97126.91;1828519;78;21635;-75
2021/04/15 02:18:04;;;;;;;3.12;1.80;;;;;;;2.97;75.79;97121.53;1807853;78;21125;-76
2021/04/15 02:20:31;;;;;;;2.10;1.72;;;;;;;3.00;75.26;97130.11;1761509;80;21116;-76
2021/04/15 02:23:04;;;;;;;2.92;1.87;;;;;;;3.02;75.09;97126.51;1761373;81;21135;-75
2021/04/15 02:25:55;;;;;;;2.37;1.85;;;;;;;3.05;75.34;97132.88;1761024;81;21155;-75
2021/04/15 02:28:48;;;;;;;2.10;1.80;;;;;;;3.07;75.48;97127.58;1761155;81;21121;-76
2021/04/15 02:31:33;;;;;;;1.65;1.40;;;;;;;3.13;76.25;97130.73;1729903;82;21644;-76
2021/04/15 02:34:11;;;;;;;2.55;2.00;;;;;;;3.12;75.62;97121.70;1731249;83;21565;-76
2021/04/15 02:36:49;;;;;;;2.30;1.87;;;;;;;3.07;75.47;97131.49;1737745;81;21151;-76
2021/04/15 02:39:22;;;;;;;2.72;1.70;;;;;;;3.04;75.00;97129.06;1777243;80;21156;-75
2021/04/15 02:41:51;;;;;;;2.72;2.30;;;;;;;3.04;75.11;97126.45;1753781;81;21138;-75
2021/04/15 02:44:26;;;;;;;2.47;2.10;;;;;;;3.01;75.60;97130.06;1714466;83;21604;-76
2021/04/15 02:47:07;;;;;;;3.30;2.52;;;;;;;2.96;75.10;97129.42;1714657;81;21155;-76
2021/04/15 02:49:36;;;;;;;3.00;2.62;;;;;;;2.96;75.13;97132.03;1715242;81;21636;-76
2021/04/15 02:52:20;;;;;;;2.55;2.35;;;;;;;2.93;75.17;97133.03;1720207;81;21158;-74
2021/04/15 02:54:55;;;;;;;4.30;2.60;;;;;;;2.91;75.15;97136.16;1717455;83;21749;-75
2021/04/15 02:57:27;;;;;;;3.77;2.67;;;;;;;2.88;75.28;97136.77;1738181;81;21151;-74
2021/04/15 03:00:08;;;;;;;3.55;2.83;;;;;;;2.84;75.02;97140.42;1761254;81;21169;-76
2021/04/15 03:05:31;;;;;;;2.77;2.27;;;;;;;2.85;75.35;97143.42;1724881;83;21178;-75
2021/04/15 03:08:01;;;;;;;4.08;2.72;;;;;;;2.83;75.29;97142.67;1726917;83;21136;-75
2021/04/15 03:10:58;;;;;;;4.35;2.90;;;;;;;2.86;76.08;97143.37;1735304;82;21155;-75
2021/04/15 03:13:30;;;;;;;3.33;2.60;;;;;;;2.94;75.60;97147.73;1698791;84;21163;-76
2021/04/15 03:16:01;;;;;;;3.02;2.67;;;;;;;2.94;75.60;97147.73;1705254;84;21126;-75
2021/04/15 03:18:55;;;;;;;4.10;2.83;;;;;;;2.96;75.79;97146.35;1663556;84;21167;-76
2021/04/15 03:21:37;;;;;;;3.77;2.83;;;;;;;2.98;75.75;97144.52;1728411;83;21134;-74
2021/04/15 03:27:15;;;;;;;4.20;2.40;;;;;;;2.96;75.03;97145.05;1708950;84;21170;-75
2021/04/15 03:30:05;;;;;;;3.52;2.50;;;;;;;2.97;74.59;97150.17;1708573;83;21195;-75
2021/04/15 03:33:01;;;;;;;3.22;2.62;;;;;;;3.00;75.50;97146.59;1707744;84;21190;-77
2021/04/15 03:35:38;;;;;;;4.08;2.92;;;;;;;2.99;75.32;97146.21;1707147;84;21176;-75
2021/04/15 03:38:14;;;;;;;4.08;2.33;;;;;;;3.00;75.13;97151.81;1707414;84;21273;-77
2021/04/15 03:40:56;;;;;;;3.15;2.58;;;;;;;3.00;74.81;97149.65;1707535;84;21257;-76
2021/04/15 03:43:34;;;;;;;3.42;2.85;;;;;;;2.98;74.43;97154.94;1694194;83;21568;-74
2021/04/15 03:46:24;;;;;;;3.40;2.35;;;;;;;2.99;74.40;97155.77;1707334;84;21164;-76
2021/04/15 03:48:58;;;;;;;3.25;2.47;;;;;;;2.95;74.18;97151.17;1707728;84;21114;-76
2021/04/15 03:51:31;;;;;;;3.02;2.50;;;;;;;2.86;74.96;97153.78;1707517;84;21179;-76
2021/04/15 03:54:06;;;;;;;2.92;2.37;;;;;;;2.73;74.49;97156.13;1706403;84;21203;-75
2021/04/15 03:56:48;;;;;;;2.87;2.35;;;;;;;2.69;75.04;97161.55;1706938;84;21674;-76
2021/04/15 03:59:42;;;;;;;3.45;2.62;;;;;;;2.61;75.06;97157.53;1707608;84;21170;-76
2021/04/15 04:02:23;;;;;;;3.15;2.37;;;;;;;2.57;75.13;97161.66;1709133;82;21633;-76
2021/04/15 04:05:04;;;;;;;2.95;2.50;;;;;;;2.56;75.12;97156.06;1707545;82;21147;-76
2021/04/15 04:10:45;;;;;;;3.30;2.25;;;;;;;2.59;75.54;97168.50;1730885;81;21127;-77
2021/04/15 04:13:54;;;;;;;3.75;2.62;;;;;;;2.62;75.79;97166.20;1747299;82;21175;-77
2021/04/15 04:16:35;;;;;;;3.62;2.50;;;;;;;2.62;76.01;97163.13;1646731;87;21171;-75
2021/04/15 04:19:23;;;;;;;3.05;2.65;;;;;;;2.62;75.79;97163.60;1626811;88;21147;-75
2021/04/15 04:22:15;;;;;;;3.37;2.40;;;;;;;2.57;75.60;97170.77;1596652;90;21186;-75
2021/04/15 04:25:12;;;;;;;3.37;2.83;;;;;;;2.58;76.13;97168.55;1611630;88;21197;-74
2021/04/15 04:28:07;;;;;;;;;;;;;;;2.59;75.73;97168.50;1644608;87;21590;-76
2021/04/15 04:30:48;;;;;;;2.40;1.77;;;;;;;2.65;75.39;97174.70;1789693;79;22618;-76
2021/04/15 04:33:18;;;;;;;3.42;2.50;;;;;;;2.65;76.13;97181.22;1756499;82;21159;-77
2021/04/15 04:35:48;;;;;;;3.17;2.50;;;;;;;2.61;75.46;97184.03;1757049;81;21128;-75
2021/04/15 04:38:21;;;;;;;2.98;2.30;;;;;;;2.61;75.63;97190.54;1758859;81;21160;-75
2021/04/15 04:40:56;;;;;;;2.60;2.33;;;;;;;2.61;75.85;97185.33;1759865;81;21088;-75
2021/04/15 04:46:32;;;;;;;3.05;2.37;;;;;;;2.68;75.62;97182.82;1690948;85;21609;-75
2021/04/15 04:49:14;;;;;;;4.05;3.08;;;;;;;2.69;75.40;97181.91;1657876;86;21606;-77
2021/04/15 04:51:52;;;;;;;2.27;2.02;;;;;;;2.74;75.71;97184.30;1657842;86;21193;-75
2021/04/15 04:54:24;;;;;;;3.35;2.33;;;;;;;2.78;75.20;97185.85;1694153;85;21624;-76
2021/04/15 04:57:26;;;;;;;3.00;2.65;;;;;;;2.85;75.12;97182.47;1693996;85;21336;-76
2021/04/15 05:00:17;;;;;;;3.22;2.47;;;;;;;2.90;74.14;97180.04;1667237;85;21238;-75
2021/04/15 05:05:37;;;;;;;3.30;2.58;;;;;;;3.07;74.32;97186.19;1623309;88;21196;-76
2021/04/15 05:08:13;;;;;;;3.08;2.50;;;;;;;3.10;74.94;97186.91;1602183;89;21187;-75
2021/04/15 05:10:40;;;;;;;3.30;2.70;;;;;;;3.20;74.57;97189.89;1605715;89;21168;-75
2021/04/15 05:13:15;;;;;;;2.87;2.50;;;;;;;3.28;74.43;97190.83;1609083;89;21287;-74
2021/04/15 05:16:11;;;;;;;3.08;2.30;;;;;;;3.42;72.40;97185.77;1805125;77;22636;-77
2021/04/15 05:18:39;;;;;;;2.83;1.77;;;;;;;3.46;73.42;97188.22;1793904;78;21150;-76
2021/04/15 05:21:14;;;;;;;3.98;3.17;;;;;;;3.55;74.55;97188.59;1782639;80;21186;-77
2021/04/15 05:23:56;;;;;;;3.40;2.25;;;;;;;3.68;74.71;97190.11;1783743;80;21220;-75
2021/04/15 05:26:31;;;;;;;2.87;2.33;;;;;;;3.79;73.94;97193.50;1798996;78;21668;-76
2021/04/15 05:29:01;;;;;;;2.55;2.20;;;;;;;3.93;74.29;97188.01;1780629;78;21150;-76
2021/04/15 05:31:32;;;;;;;6.40;2.30;;;;;;;4.08;74.35;97188.53;1777195;80;21182;-76
2021/04/15 05:34:04;;;;;;;6.47;2.05;;;;;;;4.22;73.97;97194.33;1776115;80;21131;-77
2021/04/15 05:36:39;;;;;;;2.60;1.67;;;;;;;4.37;73.21;97183.50;1735958;81;21135;-76
2021/04/15 05:39:11;;;;;;;2.70;1.40;;;;;;;4.45;71.69;97190.48;1690544;83;21178;-75
2021/04/15 05:41:46;;;;;;;3.42;1.82;;;;;;;4.48;72.58;97182.47;1724479;83;21145;-76
2021/04/15 05:44:37;;;;;;;4.78;2.37;;;;;;;4.55;72.65;97180.84;1762835;80;21183;-76
2021/04/15 05:47:28;;;;;;;2.47;1.80;;;;;;;4.66;71.38;97186.30;1674512;85;21125;-75
2021/04/15 05:50:07;;;;;;;2.40;1.62;;;;;;;4.65;72.46;97192.00;1651884;86;21189;-75
2021/04/15 05:52:41;;;;;;;2.47;2.05;;;;;;;4.69;72.03;97194.80;1642643;86;21168;-76
2021/04/15 05:55:14;;;;;;;2.92;1.92;;;;;;;4.74;71.80;97198.95;1650503;85;21160;-75
2021/04/15 05:57:46;;;;;;;2.85;2.17;;;;;;;4.73;71.14;97196.81;1651577;85;21180;-78
2021/04/15 06:00:19;;;;;;;3.35;1.85;;;;;;;4.75;70.84;97193.63;1670574;85;21181;-77
2021/04/15 06:03:14;;;;;;;2.02;1.82;;;;;;;4.82;71.08;97192.83;1649932;85;21168;-77
2021/04/15 06:06:07;;;;;;;1.90;1.62;;;;;;;4.88;71.09;97200.80;1662142;85;21185;-76
2021/04/15 06:08:39;;;;;;;2.80;2.00;;;;;;;4.94;71.74;97196.08;1668956;85;21598;-78
2021/04/15 06:11:49;;;;;;;2.58;2.12;;;;;;;5.00;70.98;97201.42;1649129;85;21574;-77
2021/04/15 06:15:05;;;;;;;3.08;1.90;;;;;;;5.07;70.66;97205.38;1586878;89;21265;-78
2021/04/15 06:17:44;;;;;;;2.08;1.80;;;;;;;5.11;70.29;97206.04;1544301;91;21173;-76
2021/04/15 06:20:37;;;;;;;2.65;1.85;;;;;;;5.21;69.86;97200.67;1808171;77;22638;-77
2021/04/15 06:23:10;;;;;;;6.15;1.90;;;;;;;5.23;70.36;97200.58;1758564;81;21144;-78
2021/04/15 06:25:45;;;;;;;2.85;1.77;;;;;;;5.28;70.84;97199.39;1776654;81;21526;-77
2021/04/15 06:28:18;;;;;;;2.10;1.87;;;;;;;5.36;71.14;97199.41;1757350;81;21116;-76
2021/04/15 06:31:24;;;;;;;1.92;1.62;;;;;;;5.41;68.04;97196.08;1705658;83;21447;-79
2021/04/15 06:33:57;;;;;;;2.15;1.37;;;;;;;5.43;69.36;97200.28;1725436;83;21165;-78
2021/04/15 06:36:48;;;;;;;2.27;1.65;;;;;;;5.45;69.31;97210.19;1726431;83;21745;-77
2021/04/15 06:39:38;;;;;;;2.10;1.40;;;;;;;5.52;69.34;97209.83;1716159;83;21154;-77
2021/04/15 06:42:49;;;;;;;2.40;1.85;;;;;;;5.66;69.76;97210.33;1700209;83;21144;-79
2021/04/15 06:45:53;;;;;;;2.60;1.50;;;;;;;5.60;67.68;97207.16;1699735;84;21192;-76
2021/04/15 06:48:50;;;;;;;3.47;2.10;;;;;;;5.59;65.45;97208.08;1709777;83;21147;-76
2021/04/15 06:51:53;;;;;;;2.67;1.70;;;;;;;5.68;69.44;97206.69;1696195;84;21172;-77
2021/04/15 06:54:44;;;;;;;2.67;1.75;;;;;;;5.75;67.13;97209.78;1666913;82;21132;-76
2021/04/15 06:57:35;;;;;;;2.30;1.57;;;;;;;5.73;67.45;97203.80;1736067;81;21183;-76
2021/04/15 07:00:23;;;;;;;3.60;1.90;;;;;;;5.63;65.72;97212.66;1742436;82;21162;-78
2021/04/15 07:03:24;;;;;;;2.50;1.98;;;;;;;5.65;67.32;97206.02;1674918;82;21179;-76
2021/04/15 07:06:06;;;;;;;2.25;1.47;;;;;;;5.73;67.58;97212.50;1742889;82;21324;-77
2021/04/15 07:09:08;;;;;;;1.98;1.35;;;;;;;5.77;68.63;97208.75;1742831;82;21152;-78
2021/04/15 07:12:13;;;;;;;2.12;1.75;;;;;;;5.76;68.10;97211.47;1698058;83;21660;-79
2021/04/15 07:15:13;;;;;;;2.55;1.85;;;;;;;5.66;65.67;97215.55;1696037;84;21164;-73
2021/04/15 07:18:15;;;;;;;3.25;2.15;;;;;;;5.59;67.10;97221.61;1703569;83;21209;-77
2021/04/15 07:21:03;;;;;;;1.85;1.45;;;;;;;5.61;67.67;97218.44;1632356;86;21205;-80
2021/04/15 07:24:13;;;;;;;2.40;1.98;;;;;;;5.59;68.07;97215.92;1655140;85;21225;-79
2021/04/15 07:27:08;;;;;;;2.30;1.92;;;;;;;5.59;67.17;97223.77;1689954;85;21166;-80
2021/04/15 07:30:16;;;;;;;2.52;1.75;;;;;;;5.67;67.08;97227.70;1643425;85;21187;-79
2021/04/15 07:33:24;;;;;;;6.80;1.77;;;;;;;5.77;67.49;97234.09;1619335;89;21209;-77
2021/04/15 07:36:27;;;;;;;2.20;1.65;;;;;;;5.68;67.06;97234.63;1641751;87;21252;-78
2021/04/15 07:39:30;;;;;;;2.00;1.80;;;;;;;5.75;67.19;97239.39;1644742;87;21260;-79
2021/04/15 07:42:33;;;;;;;2.25;1.70;;;;;;;5.83;66.36;97235.50;1647015;87;21185;-80
2021/04/15 07:45:09;;;;;;;3.83;2.37;;;;;;;5.69;65.92;97208.85;1648900;85;21214;-77
2021/04/15 07:48:08;;;;;;;3.02;1.90;;;;;;;5.96;65.94;97236.92;1666473;85;21640;-78
2021/04/15 07:51:31;;;;;;;2.25;1.75;;;;;;;6.10;65.56;97234.34;1649003;86;21210;-76
2021/04/15 07:54:26;;;;;;;4.87;2.02;;;;;;;5.67;66.54;97134.86;1661662;85;21124;-77
2021/04/15 07:57:34;;;;;;;2.55;1.75;;;;;;;6.38;66.92;97239.22;1692151;82;21159;-76
2021/04/15 08:00:46;;;;;;;1.90;1.65;;;;;;;6.46;65.68;97235.66;1746256;82;21170;-77
2021/04/15 08:04:04;;;;;;;4.92;1.60;;;;;;;6.59;64.72;97239.67;1753300;82;21557;-78
2021/04/15 08:07:01;;;;;;;;;;;;;;;6.65;65.29;97235.38;1670100;85;21192;-77
2021/04/15 08:09:49;;;;;;;2.15;1.70;;;;;;;6.81;65.00;97240.97;1664863;86;20168;-84
2021/04/15 08:12:53;;;;;;;2.27;1.87;;;;;;;6.81;65.86;97241.83;1666892;86;21543;-77
2021/04/15 08:15:47;;;;;;;2.17;1.60;;;;;;;6.72;65.12;97247.16;1662029;86;21190;-76
2021/04/15 08:18:42;;;;;;;2.80;1.85;;;;;;;6.60;64.43;97240.53;1666137;86;21207;-75
2021/04/15 08:21:29;;;;;;;3.87;1.22;;;;;;;6.59;65.05;97244.08;1665830;85;21167;-78
2021/04/15 08:25:00;;;;;;;2.40;1.92;;;;;;;6.68;64.14;97239.10;1822813;77;23063;-77
2021/04/15 08:27:56;;;;;;;3.50;2.20;;;;;;;6.75;65.33;97246.60;1819314;78;21112;-77
2021/04/15 08:30:35;;;;;;;3.77;2.62;;;;;;;7.04;65.79;97242.13;1729547;82;21116;-78
2021/04/15 08:33:43;;;;;;;3.25;2.25;;;;;;;7.38;65.65;97239.12;1726446;83;21129;-78
2021/04/15 08:36:35;;;;;;;2.95;2.05;;;;;;;7.61;65.33;97232.38;1725452;82;21122;-77
2021/04/15 08:39:28;;;;;;;5.83;2.30;;;;;;;7.77;64.83;97240.08;1712202;82;21171;-77
2021/04/15 08:42:07;;;;;;;2.40;1.72;;;;;;;7.57;62.62;97233.50;1719024;82;21624;-76
2021/04/15 08:44:57;;;;;;;4.37;2.02;;;;;;;7.58;64.97;97238.66;1719380;82;21133;-76
2021/04/15 08:47:49;;;;;;;2.98;1.80;;;;;;;7.56;64.76;97239.23;1729504;82;21661;-77
2021/04/15 08:50:31;;;;;;;2.42;1.98;;;;;;;7.56;64.76;97239.23;1712456;82;21569;-78
2021/04/15 08:53:56;;;;;;;5.97;2.08;;;;;;;7.40;63.31;97239.39;1710507;82;21148;-77
2021/04/15 08:56:31;;;;;;;2.40;2.00;;;;;;;7.38;62.56;97240.44;1712952;82;21143;-77
2021/04/15 08:59:50;;;;;;;2.75;2.12;;;;;;;7.66;64.78;97232.44;1722069;82;21189;-77
2021/04/15 09:03:02;;;;;;;3.17;2.05;;;;;;;8.19;63.38;97230.71;1710473;84;21163;-76
2021/04/15 09:06:09;;;;;;;2.35;1.60;;;;;;;8.68;63.29;97233.06;1734866;82;21159;-77
2021/04/15 09:09:16;;;;;;;2.52;1.92;;;;;;;8.79;61.80;97227.89;1739919;82;21285;-76
2021/04/15 09:12:02;;;;;;;3.12;1.95;;;;;;;8.96;62.58;97232.41;1739966;82;21277;-76
2021/04/15 09:14:54;;;;;;;2.10;1.80;;;;;;;9.22;60.36;97236.63;1733138;82;21563;-77
2021/04/15 09:17:52;;;;;;;2.90;1.98;;;;;;;9.47;62.00;97230.05;1733307;82;21171;-76
2021/04/15 09:20:55;;;;;;;2.35;1.70;;;;;;;9.37;59.49;97230.73;1729485;82;21151;-76
2021/04/15 09:23:45;;;;;;;4.03;2.00;;;;;;;9.41;58.19;97227.88;1726127;82;21156;-76
2021/04/15 09:26:51;;;;;;;2.90;1.80;;;;;;;9.45;59.10;97230.63;1664037;83;21151;-75
2021/04/15 09:29:53;;;;;;;2.45;1.67;;;;;;;9.58;59.26;97236.69;1699789;83;21286;-78
2021/04/15 09:32:52;;;;;;;2.45;1.67;;;;;;;9.66;58.23;97235.63;1685857;83;21159;-79
2021/04/15 09:35:49;;;;;;;2.22;1.70;;;;;;;9.69;57.23;97242.45;1686747;83;21133;-76
2021/04/15 09:38:22;;;;;;;3.37;1.40;;;;;;;9.43;52.83;97244.38;1716255;83;21120;-75
2021/04/15 09:41:27;;;;;;;2.30;1.67;;;;;;;9.27;57.47;97239.41;1705626;83;21622;-76
2021/04/15 09:44:35;;;;;;;3.30;2.10;;;;;;;9.21;56.07;97236.75;1681113;85;21200;-78
2021/04/15 09:47:40;;;;;;;5.30;2.02;;;;;;;9.31;58.06;97239.08;1691437;84;21148;-76
2021/04/15 09:50:40;;;;;;;12.37;2.37;;;;;;;8.83;55.55;97236.39;1715793;83;21131;-75
2021/04/15 09:53:46;;;;;;;3.45;2.40;;;;;;;8.59;56.84;97238.02;1734911;83;21573;-76
2021/04/15 09:56:28;;;;;;;8.00;2.37;;;;;;;8.40;56.95;97237.09;1735243;83;21152;-76
2021/04/15 09:59:10;;;;;;;4.20;1.85;;;;;;;8.37;57.71;97239.09;1712642;83;21182;-76
2021/04/15 10:01:47;;;;;;;2.67;2.15;;;;;;;8.47;57.43;97236.69;1709955;83;21120;-76
2021/04/15 10:04:50;;;;;;;2.12;1.52;;;;;;;8.55;56.92;97235.71;1716891;83;21561;-75
2021/04/15 10:07:22;;;;;;;40.10;3.35;;;;;;;8.50;52.14;97236.03;1691977;84;21153;-76
2021/04/15 10:10:19;;;;;;;13.32;2.55;;;;;;;8.51;56.90;97230.29;1713327;84;21158;-76
2021/04/15 10:13:39;;;;;;;4.83;1.55;;;;;;;8.38;53.17;97226.33;1709977;84;21503;-77
2021/04/15 10:16:18;;;;;;;52.15;5.08;;;;;;;8.30;55.88;97215.06;1699450;84;21588;-76
2021/04/15 10:19:19;;;;;;;6.60;1.92;;;;;;;8.30;55.88;97215.06;1679612;84;21640;-77
2021/04/15 10:21:55;;;;;;;5.60;2.00;;;;;;;8.39;54.83;97218.37;1685416;84;21125;-76
2021/04/15 10:24:46;;;;;;;10.85;2.00;;;;;;;8.42;54.00;97208.94;1715043;83;21184;-77
2021/04/15 10:27:42;;;;;;;2.42;1.52;;;;;;;8.39;55.06;97215.74;1777070;80;21576;-78
2021/04/15 10:30:44;;;;;;;5.97;1.70;;;;;;;8.41;54.45;97215.14;1711994;83;21167;-76
2021/04/15 10:33:58;;;;;;;3.47;1.62;;;;;;;8.51;55.97;97220.64;1766133;81;21569;-77
2021/04/15 10:37:08;;;;;;;2.10;1.70;;;;;;;8.53;55.77;97217.44;1766783;81;21191;-78
2021/04/15 10:39:51;;;;;;;2.70;1.30;;;;;;;8.28;55.26;97228.77;1776700;80;21116;-76
2021/04/15 10:42:44;;;;;;;1.87;1.37;;;;;;;7.94;54.74;97222.72;1771857;80;21604;-76
2021/04/15 10:45:57;;;;;;;3.30;1.25;;;;;;;7.47;56.55;97226.23;1781126;80;21584;-77
2021/04/15 10:48:44;;;;;;;3.75;1.17;;;;;;;7.47;56.55;97226.23;1772555;80;21179;-77
2021/04/15 10:51:26;;;;;;;2.40;1.22;;;;;;;7.35;56.76;97229.69;1760466;80;21088;-75
2021/04/15 10:53:58;;;;;;;1.12;0.80;;;;;;;7.40;56.11;97223.66;1727646;80;21127;-77
2021/04/15 10:56:34;;;;;;;2.45;0.72;;;;;;;7.58;56.46;97232.56;1734466;82;21140;-75
2021/04/15 10:59:16;;;;;;;5.00;1.27;;;;;;;7.63;55.77;97229.18;1718297;83;21136;-77
2021/04/15 11:01:48;;;;;;;3.15;1.00;;;;;;;7.66;55.77;97225.88;1695514;83;21157;-77
2021/04/15 11:04:24;;;;;;;7.08;1.55;;;;;;;7.66;54.33;97235.52;1762468;80;21163;-75
2021/04/15 11:07:00;;;;;;;1.92;1.20;;;;;;;7.54;54.78;97227.17;1755647;81;21282;-76
2021/04/15 11:09:35;;;;;;;2.83;1.05;;;;;;;7.66;55.01;97226.33;1756225;80;21165;-77
2021/04/15 11:12:23;;;;;;;3.70;0.80;;;;;;;7.71;55.24;97234.76;1755787;82;21291;-78
2021/04/15 11:14:56;;;;;;;1.57;1.05;;;;;;;7.56;54.33;97223.98;1750358;82;21176;-76
2021/04/15 11:17:31;;;;;;;1.05;0.90;;;;;;;7.80;53.37;97231.52;1750963;79;21179;-77
2021/04/15 11:20:22;;;;;;;1.15;0.78;;;;;;;7.80;53.37;97231.52;1768260;79;21152;-75
2021/04/15 11:23:15;;;;;;;0.60;0.53;;;;;;;8.02;55.00;97225.29;1757931;79;21147;-76
2021/04/15 11:25:49;;;;;;;1.57;0.72;;;;;;;8.19;52.81;97224.97;1694571;83;21209;-77
2021/04/15 11:28:45;;;;;;;0.95;0.78;;;;;;;8.19;52.81;97224.97;1719826;81;21154;-76
2021/04/15 11:31:19;;;;;;;2.15;1.00;;;;;;;7.89;54.18;97226.59;1651285;86;21620;-78
2021/04/15 11:34:05;;;;;;;4.17;1.00;;;;;;;7.89;54.18;97226.59;1673314;84;21244;-78
2021/04/15 11:36:59;;;;;;;1.62;1.00;;;;;;;8.00;53.44;97230.66;1819524;79;22966;-78
2021/04/15 11:39:31;;;;;;;3.30;1.07;;;;;;;7.94;53.60;97224.48;1794637;80;21298;-78
2021/04/15 11:42:04;;;;;;;1.90;1.15;;;;;;;7.95;53.18;97228.34;1796266;78;21108;-77
2021/04/15 11:44:47;;;;;;;2.20;1.40;;;;;;;7.97;52.90;97226.91;1736782;81;21176;-77
2021/04/15 11:47:30;;;;;;;2.60;2.25;;;;;;;7.93;53.72;97217.58;1698446;81;21213;-78
2021/04/15 11:50:22;;;;;;;1.62;1.20;;;;;;;7.94;54.32;97227.11;1734567;82;21199;-78
2021/04/15 11:52:53;;;;;;;2.83;1.85;;;;;;;8.00;54.20;97221.92;1746220;80;21155;-77
2021/04/15 11:55:32;;;;;;;1.95;1.45;;;;;;;8.10;53.61;97221.66;1743927;81;21708;-78
2021/04/15 11:58:08;;;;;;;2.75;1.32;;;;;;;8.23;54.51;97219.03;1721712;81;21485;-79
2021/04/15 12:00:38;;;;;;;;;;;;;;;8.09;53.76;97211.65;1713348;81;21553;-79
2021/04/15 12:03:16;;;;;;;2.45;1.90;;;;;;;7.95;54.14;97216.98;1735831;81;20128;-78
2021/04/15 12:05:47;;;;;;;2.17;1.80;;;;;;;7.43;55.16;97211.66;1724019;83;21259;-77
2021/04/15 12:08:33;;;;;;;2.30;1.92;;;;;;;7.53;55.74;97219.75;1721592;83;21137;-78
2021/04/15 12:11:15;;;;;;;2.50;1.67;;;;;;;7.33;55.31;97210.09;1737782;81;21743;-78
2021/04/15 12:13:49;;;;;;;1.85;1.30;;;;;;;7.38;55.59;97212.41;1735663;83;21294;-81
2021/04/15 12:16:55;;;;;;;1.92;1.57;;;;;;;7.28;56.16;97203.50;1735851;83;21181;-77
2021/04/15 12:19:28;;;;;;;2.52;1.70;;;;;;;7.33;56.31;97193.53;1724578;81;21542;-77
2021/04/15 12:22:03;;;;;;;2.80;1.82;;;;;;;7.22;55.88;97202.56;1713577;82;21139;-76
2021/04/15 12:24:43;;;;;;;2.50;1.87;;;;;;;7.22;55.88;97202.56;1740344;81;21161;-76
2021/04/15 12:27:24;;;;;;;2.62;1.87;;;;;;;7.35;56.30;97202.15;1727562;82;21151;-78
2021/04/15 12:30:12;;;;;;;1.80;1.22;;;;;;;7.54;55.84;97203.56;1705293;83;21173;-78
2021/04/15 12:33:23;;;;;;;3.15;1.70;;;;;;;7.54;55.84;97203.56;1707788;82;21637;-79
2021/04/15 12:36:05;;;;;;;1.60;1.30;;;;;;;7.64;56.04;97193.66;1718147;82;21175;-77
2021/04/15 12:38:47;;;;;;;1.52;1.07;;;;;;;7.66;54.02;97197.47;1699128;84;21561;-77
2021/04/15 12:41:16;;;;;;;1.80;1.25;;;;;;;7.35;54.67;97194.28;1660019;86;21135;-78
2021/04/15 12:43:52;;;;;;;2.80;1.50;;;;;;;7.16;54.32;97190.69;1680726;83;21146;-78
2021/04/15 12:46:23;;;;;;;2.72;1.60;;;;;;;7.30;55.38;97193.73;1732570;82;21661;-76
2021/04/15 12:48:54;;;;;;;1.77;1.32;;;;;;;7.65;54.35;97191.89;1740686;81;21169;-78
2021/04/15 12:51:30;;;;;;;2.05;1.30;;;;;;;7.76;53.54;97191.16;1756749;81;21137;-77
2021/04/15 12:54:15;;;;;;;2.42;1.70;;;;;;;7.72;53.44;97194.45;1748568;82;21597;-77
2021/04/15 12:56:54;;;;;;;1.60;1.50;;;;;;;7.44;52.64;97194.98;1725649;81;21169;-77
2021/04/15 12:59:32;;;;;;;2.12;1.75;;;;;;;7.47;54.09;97191.31;1719804;81;21147;-77
2021/04/15 13:02:01;;;;;;;1.87;1.50;;;;;;;7.32;53.96;97184.84;1730675;81;21135;-79
2021/04/15 13:04:40;;;;;;;2.27;1.52;;;;;;;7.18;54.74;97183.13;1738923;81;21159;-79
2021/04/15 13:07:23;;;;;;;3.40;1.80;;;;;;;6.77;55.63;97180.55;1729839;81;21168;-77
2021/04/15 13:10:15;;;;;;;2.60;1.75;;;;;;;6.77;55.63;97180.55;1699512;83;21218;-77
2021/04/15 13:12:56;;;;;;;2.77;2.20;;;;;;;6.66;55.69;97179.89;1738262;82;21661;-78
2021/04/15 13:15:28;;;;;;;3.42;1.40;;;;;;;6.79;56.06;97184.74;1686499;84;21310;-77
2021/04/15 13:17:58;;;;;;;1.85;1.25;;;;;;;6.97;53.84;97188.43;1689392;84;21144;-79
2021/04/15 13:20:31;;;;;;;2.33;1.75;;;;;;;7.02;53.18;97169.30;1729653;82;21175;-80